Pagrindinis puslapis
METAR-TAF:

METAR-TAF

Oro uostai :

Taifas, Saudo Arabija

platuma: 21-29N, ilguma: 040-33E, Aukštis: 1478 m

Dabartinis oras

Ataskaita buvo paskelbta 40 minutes, ne 10:00 UTC
Vėjas 11 kt iš Pietryčių
Temperatūra 31°C
Drėgmė 15%
Slėgis 1022 hPa
Matomumas 10 km arba daugiau
Išsisklaidę debesys ne aukštis 3000 ft

METAR: OETF 141000Z 13011KT 9999 SCT030 31/01 Q1022 NOSIG

Laikas: 13:40 (10:40 UTC)

Prognozė

Ataskaita buvo paskelbta 5 valandos ir 40 minutes, ne 05:00 UTC
Prognozė galioja nuo 14 metu 06 UTC su 14 metu 24 UTC
Vėjas 14 kt iš Rytų/Pietryčių
Matomumas 10 km arba daugiau
Mažai debesys ne aukštis 3000 ft
Tapsmas
nuo 14 metu 10 UTC su 14 metu 12 UTC
Vėjas 15 kt iš Vakarų
Laikinai
nuo 14 metu 10 UTC su 14 metu 18 UTC
Matomumas: 6000 m
Mažai debesys ne aukštis 2500 ft, Liūtiniai kamuoliniai debesys.
Išsisklaidę debesys ne aukštis 3000 ft
perkūnija, lietus

TAF: OETF 140500Z 1406/1424 12014KT 9999 FEW030 BECMG 1410/1412 28015KT TEMPO 1410/1418 6000 TSRA FEW025CB SCT030

Orai ataskaitas ir orų prognozės (METAR, TAF).

turimą stotys yra geltonos ir raudonos taškus žemėlapyje.

Perkelti pele per norėdami pamatyti stoties vardą.

Tada spustelėkite, norėdami matyti oro stebėjimo ir prognozės.

Norėdami pakeisti žemėlapį: spustelėkite ant žalios mygtukų su juodo kryžiaus žemyn,; žalią mygtuką su brūkšneliu, jei norite nutolinti; arba žalių rodyklių gretimoms žemėlapius.


METAR-TAF: